Time;durP1;ratioP1;P1;durP2;ratioP2;P2;SDS_P1;SDS_P2;PMS_P1;PMS_P2;Temp;Humidity;BMP_temperature;BMP_pressure;BME280_temperature;BME280_humidity;BME280_pressure;Samples;Min_cycle;Max_cycle;Signal;HPM_P1;HPM_P2
2021/12/24 00:01:52;;;;;;;91.37;50.63;;;;;;;-1.14;77.92;99602.41;1714748;83;21066;-81
2021/12/24 00:04:19;;;;;;;100.85;53.42;;;;;;;-1.14;77.91;99604.99;1658801;85;21127;-80
2021/12/24 00:06:46;;;;;;;96.32;53.95;;;;;;;-1.13;77.89;99596.83;1687878;84;21598;-80
2021/12/24 00:09:20;;;;;;;98.37;53.52;;;;;;;-1.09;77.96;99591.02;1687890;84;22578;-80
2021/12/24 00:11:41;;;;;;;101.90;54.55;;;;;;;-1.10;77.89;99584.09;1687112;84;21416;-87
2021/12/24 00:14:08;;;;;;;102.15;55.73;;;;;;;-1.08;77.97;99578.60;1688221;84;21069;-81
2021/12/24 00:16:42;;;;;;;100.92;53.02;;;;;;;-1.09;78.00;99568.69;1687993;84;21074;-81
2021/12/24 00:19:19;;;;;;;104.20;54.85;;;;;;;-1.08;77.93;99563.98;1686405;84;21050;-81
2021/12/24 00:35:34;;;;;;;92.33;53.40;;;;;;;-1.13;77.79;99539.61;1649672;86;21900;-81
2021/12/24 00:38:03;;;;;;;99.95;53.15;;;;;;;-1.14;77.78;99532.69;1632828;86;21434;-80
2021/12/24 00:40:34;;;;;;;102.20;53.00;;;;;;;-1.18;77.76;99531.64;1685595;84;21146;-81
2021/12/24 00:43:01;;;;;;;91.20;52.78;;;;;;;-1.19;77.79;99522.10;1632638;87;21112;-80
2021/12/24 00:45:31;;;;;;;109.22;53.25;;;;;;;-1.22;77.73;99514.22;1633018;87;21092;-81
2021/12/24 00:47:59;;;;;;;102.32;53.25;;;;;;;-1.27;77.68;99498.89;1649905;86;21778;-81
2021/12/24 00:50:29;;;;;;;101.95;54.48;;;;;;;-1.31;77.69;99497.37;1655722;85;21102;-81
2021/12/24 00:53:01;;;;;;;106.80;55.33;;;;;;;-1.34;77.69;99497.20;1685459;85;21027;-81
2021/12/24 00:55:28;;;;;;;97.15;53.17;;;;;;;-1.41;77.62;99497.27;1684706;83;21109;-80
2021/12/24 00:58:00;;;;;;;106.10;55.23;;;;;;;-1.48;77.61;99502.53;1685739;83;21560;-80
2021/12/24 01:00:34;;;;;;;109.97;55.28;;;;;;;-1.52;77.74;99498.02;1684877;85;21796;-81
2021/12/24 01:03:02;;;;;;;107.47;55.20;;;;;;;-1.52;77.81;99500.60;1685381;83;21524;-81
2021/12/24 01:05:29;;;;;;;104.03;56.18;;;;;;;-1.51;77.94;99497.61;1685139;85;21106;-81
2021/12/24 01:07:56;;;;;;;98.42;56.15;;;;;;;-1.49;77.98;99495.99;1685403;84;21130;-81
2021/12/24 01:10:29;;;;;;;107.37;57.48;;;;;;;-1.48;78.05;99496.08;1685212;84;21635;-82
2021/12/24 01:12:55;;;;;;;103.40;55.75;;;;;;;-1.50;78.06;99491.25;1684927;85;21789;-81
2021/12/24 01:15:22;;;;;;;107.45;56.40;;;;;;;-1.48;78.08;99484.84;1685483;84;21110;-80
2021/12/24 01:18:01;;;;;;;103.90;53.98;;;;;;;-1.48;78.12;99481.89;1685558;83;21090;-81
2021/12/24 01:20:25;;;;;;;112.35;57.30;;;;;;;-1.48;78.18;99484.84;1682982;85;21069;-81
2021/12/24 01:25:37;;;;;;;104.67;55.50;;;;;;;-1.44;78.20;99472.20;1684853;85;22447;-81
2021/12/24 01:38:54;;;;;;;100.27;54.48;;;;;;;-1.28;78.33;99449.34;1685259;84;21790;-81
2021/12/24 01:41:08;;;;;;;101.70;53.73;;;;;;;-1.25;78.31;99455.08;1682026;85;21094;-80
2021/12/24 01:43:33;;;;;;;96.65;53.75;;;;;;;-1.22;78.34;99454.84;1685164;84;21109;-80
2021/12/24 01:46:00;;;;;;;101.75;52.93;;;;;;;-1.21;78.25;99450.55;1685388;84;21080;-80
2021/12/24 01:48:27;;;;;;;94.95;52.55;;;;;;;-1.20;78.28;99451.92;1685423;84;21058;-80
2021/12/24 01:50:54;;;;;;;95.65;53.70;;;;;;;-1.19;78.18;99448.93;1685463;84;22315;-80
2021/12/24 01:53:22;;;;;;;91.55;50.33;;;;;;;-1.18;78.30;99447.72;1685173;83;21330;-80
2021/12/24 01:55:50;;;;;;;97.82;53.00;;;;;;;-1.14;78.29;99447.89;1685237;84;21125;-81
2021/12/24 01:58:21;;;;;;;107.47;54.80;;;;;;;-1.13;78.32;99445.36;1685343;84;21581;-81
2021/12/24 02:00:50;;;;;;;98.90;55.05;;;;;;;-1.13;78.15;99442.77;1685480;83;21117;-80
2021/12/24 02:03:17;;;;;;;97.80;52.17;;;;;;;-1.12;78.19;99437.23;1685528;84;21772;-81
2021/12/24 02:05:44;;;;;;;100.97;54.80;;;;;;;-1.10;78.27;99432.61;1685414;84;21058;-80
2021/12/24 02:08:11;;;;;;;99.67;53.98;;;;;;;-1.08;78.29;99423.66;1685572;84;21090;-80
2021/12/24 02:10:38;;;;;;;97.53;54.80;;;;;;;-1.07;78.20;99423.73;1685621;84;21113;-81
2021/12/24 02:13:04;;;;;;;94.85;52.80;;;;;;;-1.07;78.22;99417.66;1685419;84;21023;-80
2021/12/24 02:28:58;;;;;;;100.62;53.95;;;;;;;-1.03;78.28;99392.08;1685300;83;22163;-81
2021/12/24 02:31:26;;;;;;;100.90;54.67;;;;;;;-1.03;78.21;99383.05;1685643;85;21086;-81
2021/12/24 02:33:53;;;;;;;96.97;53.40;;;;;;;-1.05;78.19;99379.88;1685682;84;21058;-81
2021/12/24 02:36:21;;;;;;;102.30;53.90;;;;;;;-1.04;78.26;99377.38;1685367;83;21114;-81
2021/12/24 02:38:49;;;;;;;103.12;55.35;;;;;;;-1.04;78.29;99376.09;1685456;83;21110;-81
2021/12/24 02:41:15;;;;;;;108.87;56.10;;;;;;;-1.03;78.20;99377.00;1685325;84;21805;-80
2021/12/24 02:43:42;;;;;;;105.90;55.75;;;;;;;-1.04;78.25;99374.80;1685377;83;21051;-80
2021/12/24 02:46:23;;;;;;;105.40;56.80;;;;;;;-1.02;78.29;99374.47;1685505;85;21161;-80
2021/12/24 02:54:13;;;;;;;122.67;61.63;;;;;;;-1.00;78.18;99365.51;1685360;83;22550;-81
2021/12/24 02:56:40;;;;;;;121.37;61.45;;;;;;;-1.03;78.10;99367.55;1685546;85;22136;-81
2021/12/24 02:59:14;;;;;;;122.35;62.33;;;;;;;-1.04;78.11;99358.43;1685501;84;21153;-81
2021/12/24 03:01:44;;;;;;;126.53;62.95;;;;;;;-1.06;78.11;99351.02;1685668;84;21099;-80
2021/12/24 03:04:11;;;;;;;121.82;62.85;;;;;;;-1.04;78.21;99345.52;1685519;83;21046;-81
2021/12/24 03:06:40;;;;;;;118.93;64.15;;;;;;;-1.05;78.16;99343.73;1685358;84;22606;-81
2021/12/24 03:09:09;;;;;;;115.12;61.13;;;;;;;-1.10;78.06;99333.20;1685756;83;21795;-81
2021/12/24 03:11:35;;;;;;;116.80;64.07;;;;;;;-1.15;78.11;99332.08;1685582;84;22387;-80
2021/12/24 03:14:05;;;;;;;119.08;66.17;;;;;;;-1.19;78.17;99327.17;1685391;84;21128;-80
2021/12/24 03:16:32;;;;;;;118.93;67.70;;;;;;;-1.17;78.22;99316.92;1685395;84;21114;-80
2021/12/24 03:18:58;;;;;;;119.75;68.75;;;;;;;-1.23;78.19;99325.25;1685263;84;21167;-80
2021/12/24 03:21:31;;;;;;;117.72;67.35;;;;;;;-1.26;78.15;99328.09;1685068;84;21130;-80
2021/12/24 03:26:40;;;;;;;125.35;69.15;;;;;;;-1.30;78.24;99327.46;1685226;84;22508;-81
2021/12/24 03:29:09;;;;;;;114.12;62.58;;;;;;;-1.26;78.45;99317.77;1685379;83;21070;-81
2021/12/24 03:31:41;;;;;;;113.80;62.65;;;;;;;-1.24;78.44;99305.81;1685561;84;21769;-81
2021/12/24 03:34:14;;;;;;;116.95;61.10;;;;;;;-1.25;78.42;99306.22;1685269;83;21065;-81
2021/12/24 03:36:39;;;;;;;109.90;58.65;;;;;;;-1.23;78.48;99302.43;1684763;84;21090;-81
2021/12/24 03:39:07;;;;;;;109.55;58.45;;;;;;;-1.19;78.59;99303.05;1685258;83;21144;-81
2021/12/24 03:41:34;;;;;;;105.27;58.83;;;;;;;-1.18;78.56;99302.26;1685323;84;21090;-81
2021/12/24 03:44:00;;;;;;;119.17;58.75;;;;;;;-1.18;78.48;99295.39;1685303;84;21757;-81
2021/12/24 03:46:36;;;;;;;116.50;60.10;;;;;;;-1.13;78.60;99293.42;1685405;84;21118;-81
2021/12/24 03:49:04;;;;;;;107.75;58.05;;;;;;;-1.11;78.51;99294.38;1683586;83;21074;-82
2021/12/24 03:51:46;;;;;;;109.07;58.40;;;;;;;-1.10;78.58;99286.72;1684447;85;21055;-81
2021/12/24 03:56:49;;;;;;;114.75;58.52;;;;;;;-1.08;78.51;99273.47;1685511;84;22621;-80
2021/12/24 03:59:16;;;;;;;107.50;57.80;;;;;;;-1.05;78.58;99272.33;1685430;84;21154;-80
2021/12/24 04:01:43;;;;;;;107.70;56.90;;;;;;;-1.05;78.45;99272.72;1685470;84;21555;-80
2021/12/24 04:04:09;;;;;;;105.80;58.85;;;;;;;-1.06;78.39;99270.96;1685619;84;21066;-80
2021/12/24 04:06:36;;;;;;;109.00;56.77;;;;;;;-1.09;78.38;99267.84;1685797;83;21873;-80
2021/12/24 04:09:06;;;;;;;109.67;56.55;;;;;;;-1.09;78.46;99277.27;1685656;84;21805;-80
2021/12/24 04:11:34;;;;;;;102.70;55.03;;;;;;;-1.08;78.50;99279.92;1685130;84;21074;-78
2021/12/24 04:14:01;;;;;;;107.52;57.00;;;;;;;-1.10;78.35;99271.64;1685348;83;21592;-81
2021/12/24 04:16:28;;;;;;;105.67;55.88;;;;;;;-1.11;78.37;99267.27;1685279;85;21073;-80
2021/12/24 04:27:12;;;;;;;84.15;46.45;;;;;;;-1.09;78.50;99275.97;1652060;84;21142;-81
2021/12/24 04:29:38;;;;;;;87.80;48.08;;;;;;;-1.07;78.56;99272.67;1652280;86;22269;-81
2021/12/24 04:32:10;;;;;;;84.03;46.23;;;;;;;-1.07;78.54;99269.17;1632134;87;21089;-82
2021/12/24 04:34:35;;;;;;;84.47;45.85;;;;;;;-1.07;78.61;99267.50;1632652;86;21880;-82
2021/12/24 04:37:42;;;;;;;88.87;47.60;;;;;;;-1.02;78.67;99262.54;1627120;87;21121;-81
2021/12/24 05:01:12;;;;;;;83.52;44.03;;;;;;;-0.94;78.73;99243.11;1632235;86;21102;-81
2021/12/24 05:01:21;;;;;;;76.90;43.10;;;;;;;-0.89;78.65;99246.80;1632174;87;22611;-78
2021/12/24 05:03:44;;;;;;;78.78;44.10;;;;;;;-0.91;78.68;99250.14;1633338;86;21174;-80
2021/12/24 05:11:16;;;;;;;80.05;44.25;;;;;;;-0.85;78.78;99251.70;1652146;86;21083;-79
2021/12/24 05:13:42;;;;;;;75.55;42.58;;;;;;;-0.84;78.70;99256.94;1652440;86;21761;-79
2021/12/24 05:16:19;;;;;;;75.22;43.52;;;;;;;-0.82;78.76;99241.52;1652431;86;21083;-80
2021/12/24 05:21:36;;;;;;;73.22;42.23;;;;;;;-0.76;78.82;99221.13;1651973;86;21066;-80
2021/12/24 05:24:12;;;;;;;78.67;42.33;;;;;;;-0.76;78.74;99224.13;1652379;86;21071;-80
2021/12/24 05:26:39;;;;;;;76.70;41.13;;;;;;;-0.80;78.62;99229.55;1642733;86;21813;-80
2021/12/24 05:29:06;;;;;;;69.53;40.00;;;;;;;-0.83;78.64;99228.98;1648843;86;21086;-81
2021/12/24 05:31:33;;;;;;;79.37;41.40;;;;;;;-0.83;78.63;99222.94;1648911;86;21643;-80
2021/12/24 05:34:00;;;;;;;75.17;39.98;;;;;;;-0.86;78.62;99213.78;1648774;86;21123;-80
2021/12/24 05:36:26;;;;;;;70.28;40.12;;;;;;;-0.86;78.66;99209.91;1648766;86;21687;-80
2021/12/24 05:38:53;;;;;;;73.67;41.42;;;;;;;-0.88;78.66;99213.71;1648567;86;21754;-80
2021/12/24 05:41:21;;;;;;;75.83;42.45;;;;;;;-0.90;78.66;99212.76;1648276;86;21719;-80
2021/12/24 05:43:49;;;;;;;77.90;43.15;;;;;;;-0.92;78.71;99217.36;1642790;86;21078;-80
2021/12/24 05:46:15;;;;;;;72.10;40.58;;;;;;;-0.92;78.74;99213.09;1593089;87;21179;-80
2021/12/24 05:48:42;;;;;;;72.90;40.17;;;;;;;-0.91;78.78;99213.97;1624508;88;21085;-80
2021/12/24 05:51:09;;;;;;;76.65;40.15;;;;;;;-0.92;78.79;99209.61;1652624;86;22442;-80
2021/12/24 05:53:38;;;;;;;71.80;40.52;;;;;;;-0.93;78.80;99203.98;1652348;86;21164;-80
2021/12/24 05:56:05;;;;;;;67.82;38.90;;;;;;;-0.96;78.77;99193.08;1633835;87;21110;-80
2021/12/24 05:58:31;;;;;;;73.40;39.60;;;;;;;-0.94;78.86;99191.45;1624322;87;21140;-80
2021/12/24 06:00:58;;;;;;;74.67;38.92;;;;;;;-0.96;78.80;99187.92;1653139;86;21217;-80
2021/12/24 06:03:25;;;;;;;71.85;38.90;;;;;;;-0.98;78.76;99183.09;1652426;86;21754;-81
2021/12/24 06:05:51;;;;;;;71.90;39.20;;;;;;;-1.02;78.74;99188.52;1633903;87;21090;-82
2021/12/24 06:08:18;;;;;;;67.53;39.10;;;;;;;-1.14;78.82;99173.78;1624528;88;21163;-82
2021/12/24 06:10:45;;;;;;;63.40;37.78;;;;;;;-1.05;78.84;99188.41;1652616;85;21577;-83
2021/12/24 06:13:11;;;;;;;72.32;38.67;;;;;;;-1.08;78.82;99189.55;1652576;85;21112;-79
2021/12/24 06:15:44;;;;;;;64.17;37.48;;;;;;;-1.09;78.87;99176.17;1634297;87;21766;-80
2021/12/24 06:18:13;;;;;;;61.80;37.17;;;;;;;-1.09;78.96;99169.72;1624601;88;21152;-80
2021/12/24 06:20:39;;;;;;;66.33;38.53;;;;;;;-1.10;78.92;99162.77;1633784;87;21130;-80
2021/12/24 06:23:07;;;;;;;68.28;38.58;;;;;;;-1.10;78.99;99160.60;1611829;87;21117;-80
2021/12/24 06:25:34;;;;;;;91.30;49.73;;;;;;;-1.10;79.07;99158.02;1635543;84;21093;-79
2021/12/24 06:28:01;;;;;;;67.08;38.10;;;;;;;-1.09;79.17;99150.35;1665712;85;21875;-80
2021/12/24 06:30:29;;;;;;;68.42;37.17;;;;;;;-1.08;79.24;99145.64;1665813;85;21069;-79
2021/12/24 06:32:57;;;;;;;68.33;38.83;;;;;;;-1.05;79.23;99150.96;1666097;86;21152;-82
2021/12/24 06:35:24;;;;;;;68.47;38.42;;;;;;;-1.05;79.23;99143.21;1666092;85;21749;-79
2021/12/24 06:37:58;;;;;;;68.45;37.78;;;;;;;-1.03;79.31;99136.41;1666314;85;21108;-79
2021/12/24 06:40:36;;;;;;;65.40;37.15;;;;;;;-1.00;79.35;99133.95;1667898;84;21780;-79
2021/12/24 06:43:02;;;;;;;70.15;37.83;;;;;;;-0.97;79.40;99146.13;1667712;85;21175;-80
2021/12/24 06:45:39;;;;;;;65.60;36.77;;;;;;;-0.93;79.47;99142.87;1666194;85;21098;-80
2021/12/24 06:48:10;;;;;;;66.37;37.88;;;;;;;-0.91;79.43;99144.23;1661601;86;21106;-80
2021/12/24 06:50:38;;;;;;;71.25;38.38;;;;;;;-0.87;79.55;99143.55;1627685;87;21113;-80
2021/12/24 06:53:06;;;;;;;65.67;37.50;;;;;;;-0.82;79.57;99139.06;1634156;87;21172;-80
2021/12/24 06:55:36;;;;;;;61.92;36.73;;;;;;;-0.78;79.56;99134.92;1665981;85;21089;-80
2021/12/24 06:58:23;;;;;;;71.28;37.53;;;;;;;-0.73;79.54;99143.77;1669016;85;21568;-72
2021/12/24 07:00:54;;;;;;;65.83;35.70;;;;;;;-0.70;79.54;99145.59;1667509;85;21097;-73
2021/12/24 07:03:22;;;;;;;69.95;38.78;;;;;;;-0.75;79.45;99126.41;1668362;85;21344;-73
2021/12/24 07:05:49;;;;;;;66.95;37.42;;;;;;;-0.68;79.39;99135.78;1667654;85;21784;-73
2021/12/24 07:08:19;;;;;;;66.40;37.35;;;;;;;-0.68;79.29;99132.32;1637044;87;21756;-73
2021/12/24 07:10:51;;;;;;;69.10;37.58;;;;;;;-0.69;79.29;99134.45;1635572;87;21101;-73
2021/12/24 07:13:20;;;;;;;69.72;37.40;;;;;;;-0.70;79.33;99141.30;1667277;86;21631;-72
2021/12/24 07:15:50;;;;;;;63.17;36.85;;;;;;;-0.67;79.43;99139.27;1667466;86;21034;-81
2021/12/24 07:18:24;;;;;;;71.85;39.48;;;;;;;-0.65;79.48;99134.63;1667272;86;21868;-80
2021/12/24 07:21:03;;;;;;;68.87;38.10;;;;;;;-0.61;79.54;99131.77;1668034;86;21552;-80
2021/12/24 07:23:51;;;;;;;65.25;37.83;;;;;;;-0.57;79.48;99148.30;1668342;85;21611;-80
2021/12/24 07:26:20;;;;;;;67.08;38.15;;;;;;;-0.56;79.40;99150.05;1666216;85;21165;-81
2021/12/24 07:28:48;;;;;;;74.72;39.80;;;;;;;-0.55;79.40;99151.41;1660331;86;21089;-81
2021/12/24 07:31:15;;;;;;;71.97;40.60;;;;;;;-0.52;79.47;99155.85;1660597;86;21793;-81
2021/12/24 07:33:41;;;;;;;72.55;39.75;;;;;;;-0.56;79.35;99141.00;1659389;86;21101;-74
2021/12/24 07:36:15;;;;;;;76.30;41.25;;;;;;;-0.51;79.38;99141.67;1659541;86;21129;-73
2021/12/24 07:38:51;;;;;;;71.05;39.80;;;;;;;-0.48;79.35;99139.66;1659765;86;21199;-73
2021/12/24 07:41:25;;;;;;;76.70;40.40;;;;;;;-0.49;79.30;99137.48;1647389;86;21684;-72
2021/12/24 07:43:56;;;;;;;73.80;39.33;;;;;;;-0.45;79.39;99139.37;1630966;86;21810;-72
2021/12/24 07:46:25;;;;;;;68.12;38.33;;;;;;;-0.40;79.50;99135.68;1659214;86;21316;-82
2021/12/24 07:49:01;;;;;;;70.10;37.88;;;;;;;-0.34;79.59;99137.22;1640554;85;21085;-82
2021/12/24 07:54:08;;;;;;;56.92;33.92;;;;;;;-0.20;79.74;99138.70;1631113;87;21429;-82
2021/12/24 07:56:35;;;;;;;59.85;34.20;;;;;;;-0.13;80.02;99123.04;1659572;86;21316;-82
2021/12/24 07:59:02;;;;;;;52.48;30.62;;;;;;;-0.02;80.25;99115.31;1660281;86;21122;-81
2021/12/24 08:01:31;;;;;;;52.05;30.55;;;;;;;0.09;80.38;99110.97;1627465;87;21161;-82
2021/12/24 08:03:58;;;;;;;51.68;29.90;;;;;;;0.22;80.49;99113.22;1659426;85;21646;-74
2021/12/24 08:06:25;;;;;;;53.00;32.10;;;;;;;0.33;80.52;99121.41;1631311;87;21094;-73
2021/12/24 08:08:59;;;;;;;52.00;30.95;;;;;;;0.44;80.50;99124.01;1658373;86;21987;-73
2021/12/24 08:11:27;;;;;;;59.63;34.03;;;;;;;0.53;80.42;99110.13;1655579;86;21070;-73
2021/12/24 08:13:57;;;;;;;56.98;32.38;;;;;;;0.64;80.37;99111.84;1655384;86;21632;-74
2021/12/24 08:16:26;;;;;;;61.37;33.58;;;;;;;0.72;80.28;99110.41;1655395;86;21103;-73
2021/12/24 08:18:53;;;;;;;55.92;33.67;;;;;;;0.78;80.16;99112.35;1654988;86;21115;-73
2021/12/24 08:21:33;;;;;;;61.10;35.10;;;;;;;0.85;80.12;99111.77;1655155;86;21868;-73
2021/12/24 08:24:02;;;;;;;60.63;35.70;;;;;;;0.91;80.03;99109.81;1635776;86;21095;-73
2021/12/24 08:26:29;;;;;;;64.47;36.75;;;;;;;1.00;80.04;99106.69;1654864;86;21553;-74
2021/12/24 08:28:56;;;;;;;67.82;38.02;;;;;;;1.07;80.02;99100.88;1654972;86;21138;-73
2021/12/24 08:31:24;;;;;;;69.10;35.68;;;;;;;1.14;79.93;99113.23;1655302;86;21148;-75
2021/12/24 08:33:52;;;;;;;69.95;36.28;;;;;;;1.21;79.86;99112.63;1655299;86;21873;-75
2021/12/24 08:36:31;;;;;;;64.47;36.45;;;;;;;1.23;79.74;99109.67;1656804;86;21103;-75
2021/12/24 08:38:56;;;;;;;62.78;34.45;;;;;;;1.29;79.73;99116.79;1624207;85;21108;-74
2021/12/24 08:41:25;;;;;;;62.33;35.03;;;;;;;1.33;79.69;99106.60;1625970;88;21156;-76
2021/12/24 08:43:52;;;;;;;59.53;34.00;;;;;;;1.41;79.73;99097.79;1626616;88;21675;-76
2021/12/24 08:46:19;;;;;;;62.98;35.73;;;;;;;1.47;79.66;99093.23;1657278;86;23096;-78
2021/12/24 08:48:45;;;;;;;67.92;35.73;;;;;;;1.51;79.58;99096.39;1659578;85;21047;-76
2021/12/24 08:51:12;;;;;;;60.90;35.25;;;;;;;1.53;79.54;99102.09;1658528;85;21655;-75
2021/12/24 08:53:39;;;;;;;64.35;36.60;;;;;;;1.53;79.40;99097.33;1659317;85;21631;-73
2021/12/24 08:56:08;;;;;;;65.25;36.35;;;;;;;1.52;79.43;99104.63;1655823;85;21090;-74
2021/12/24 08:58:36;;;;;;;61.45;35.70;;;;;;;1.53;79.40;99105.11;1658013;84;21788;-73
2021/12/24 09:01:06;;;;;;;64.85;36.35;;;;;;;1.52;79.33;99098.14;1660178;85;21098;-73
2021/12/24 09:03:34;;;;;;;70.42;38.58;;;;;;;1.54;79.30;99099.10;1658457;85;21365;-73
2021/12/24 09:06:04;;;;;;;70.70;38.80;;;;;;;1.46;79.25;99088.86;1659491;86;21165;-73
2021/12/24 09:08:46;;;;;;;71.30;38.02;;;;;;;1.62;79.27;99108.02;1653689;86;21069;-73
2021/12/24 09:11:09;;;;;;;66.07;36.93;;;;;;;1.67;79.24;99100.38;1660723;86;21197;-73
2021/12/24 09:13:36;;;;;;;71.90;37.45;;;;;;;1.70;79.12;99092.70;1664756;85;21090;-74
2021/12/24 09:16:02;;;;;;;72.17;39.75;;;;;;;1.71;79.04;99094.48;1664547;84;21633;-73
2021/12/24 09:18:29;;;;;;;71.45;39.80;;;;;;;1.72;78.95;99094.94;1664084;86;21808;-74
2021/12/24 09:21:00;;;;;;;70.47;37.60;;;;;;;1.75;79.03;99086.84;1665187;84;21141;-73
2021/12/24 09:23:24;;;;;;;69.03;37.38;;;;;;;1.75;78.92;99085.55;1665067;84;21782;-74
2021/12/24 09:25:51;;;;;;;70.52;39.42;;;;;;;1.61;78.79;99056.95;1665611;86;21301;-73
2021/12/24 09:28:18;;;;;;;71.95;37.63;;;;;;;1.67;78.72;99069.25;1658610;85;21081;-73
2021/12/24 09:30:45;;;;;;;64.25;35.83;;;;;;;1.61;78.70;99063.44;1656213;85;21089;-74
2021/12/24 09:33:12;;;;;;;69.35;35.92;;;;;;;1.58;78.69;99063.75;1655329;86;21098;-76
2021/12/24 09:35:55;;;;;;;64.25;36.58;;;;;;;1.54;78.74;99060.20;1655992;85;21865;-76
2021/12/24 09:38:17;;;;;;;62.85;35.95;;;;;;;1.57;78.95;99064.17;1636807;85;21139;-75
2021/12/24 09:40:44;;;;;;;67.22;36.13;;;;;;;1.58;78.89;99062.06;1667255;85;21694;-77
2021/12/24 09:43:11;;;;;;;72.37;37.75;;;;;;;1.61;78.91;99071.65;1662559;86;21142;-77
2021/12/24 09:45:37;;;;;;;68.45;36.83;;;;;;;1.64;78.98;99070.05;1638855;87;21097;-76
2021/12/24 09:48:07;;;;;;;64.87;35.38;;;;;;;1.66;78.89;99067.08;1639941;86;22749;-77
2021/12/24 09:50:33;;;;;;;65.00;35.73;;;;;;;1.69;78.86;99065.90;1662451;86;21129;-77
2021/12/24 09:53:00;;;;;;;68.67;38.08;;;;;;;1.72;78.89;99058.63;1638780;87;21179;-77
2021/12/24 09:55:29;;;;;;;69.58;37.63;;;;;;;1.78;78.85;99048.86;1662718;86;21152;-76
2021/12/24 09:57:56;;;;;;;70.80;38.98;;;;;;;1.80;78.89;99048.07;1638746;87;21355;-77
2021/12/24 10:00:24;;;;;;;72.62;37.85;;;;;;;1.84;78.84;99052.55;1635186;86;21764;-77
2021/12/24 10:02:54;;;;;;;65.50;37.33;;;;;;;1.88;78.82;99047.92;1632033;87;21028;-76
2021/12/24 10:05:39;;;;;;;63.38;36.05;;;;;;;1.89;78.72;99048.37;1601886;87;21131;-76
2021/12/24 10:08:18;;;;;;;64.22;34.58;;;;;;;1.91;78.70;99043.23;1630403;85;21201;-76
2021/12/24 10:10:47;;;;;;;58.35;32.90;;;;;;;1.94;78.70;99042.92;1630491;86;21069;-77
2021/12/24 10:13:43;;;;;;;56.95;32.25;;;;;;;1.99;78.68;99034.39;1637741;86;21849;-76
2021/12/24 10:16:15;;;;;;;52.00;30.32;;;;;;;2.06;78.75;99042.84;1627838;85;21415;-77
2021/12/24 10:18:48;;;;;;;54.05;30.43;;;;;;;2.14;78.69;99035.77;1650574;85;21218;-77
2021/12/24 10:21:28;;;;;;;55.40;30.37;;;;;;;2.21;78.86;99034.65;1662029;85;27275;-77
2021/12/24 10:24:02;;;;;;;57.15;31.80;;;;;;;2.28;78.79;99023.20;1682431;85;21131;-81
2021/12/24 10:26:46;;;;;;;52.55;31.20;;;;;;;2.33;78.63;99020.76;1682345;85;22672;-77
2021/12/24 10:29:29;;;;;;;56.53;31.50;;;;;;;2.32;78.44;99006.88;1666343;85;21362;-77
2021/12/24 10:32:00;;;;;;;55.92;30.92;;;;;;;2.32;78.48;99012.06;1661433;84;21176;-77
2021/12/24 10:34:31;;;;;;;46.25;28.52;;;;;;;2.37;78.43;98999.66;1652787;86;21177;-77
2021/12/24 10:37:14;;;;;;;48.38;29.67;;;;;;;2.38;78.32;99010.49;1640028;86;21615;-77
2021/12/24 10:39:58;;;;;;;47.13;28.40;;;;;;;2.36;78.22;99009.14;1681293;83;22606;-77
2021/12/24 10:42:37;;;;;;;47.15;27.98;;;;;;;2.30;78.28;98990.80;1641965;85;21184;-77
2021/12/24 10:45:07;;;;;;;46.40;27.13;;;;;;;2.40;78.27;98997.13;1674285;84;21147;-77
2021/12/24 10:47:37;;;;;;;46.98;26.85;;;;;;;2.45;78.36;98999.45;1663324;85;21070;-77
2021/12/24 10:50:25;;;;;;;45.33;29.20;;;;;;;2.51;78.36;98990.11;1636198;87;21062;-77
2021/12/24 10:55:30;;;;;;;57.17;36.83;;;;;;;2.63;78.29;98992.20;1615625;87;21118;-76
2021/12/24 10:57:59;;;;;;;63.85;38.42;;;;;;;2.69;78.25;98991.48;1666542;84;21118;-76
2021/12/24 11:00:31;;;;;;;58.02;35.45;;;;;;;2.77;78.29;98978.28;1662363;85;21122;-76
2021/12/24 11:03:06;;;;;;;53.80;34.78;;;;;;;2.86;78.17;98975.94;1662641;84;21110;-77
2021/12/24 11:05:41;;;;;;;76.80;54.00;;;;;;;2.92;77.95;98973.92;1670014;84;22643;-77
2021/12/24 11:08:17;;;;;;;68.75;52.48;;;;;;;2.98;77.92;98967.58;1670303;84;21121;-76
2021/12/24 11:10:54;;;;;;;56.92;40.83;;;;;;;3.01;77.76;98966.38;1663855;84;21397;-76
2021/12/24 11:13:32;;;;;;;51.50;31.50;;;;;;;3.07;77.77;98966.53;1680403;84;21090;-79
2021/12/24 11:16:02;;;;;;;48.78;34.05;;;;;;;3.08;77.60;98960.93;1660844;86;21195;-78
2021/12/24 11:18:32;;;;;;;39.67;27.32;;;;;;;3.08;77.49;98964.41;1673345;84;22601;-78
2021/12/24 11:21:02;;;;;;;64.42;47.25;;;;;;;3.09;77.59;98964.84;1690291;84;21149;-77
2021/12/24 11:23:31;;;;;;;45.38;31.07;;;;;;;3.17;77.85;98955.07;1683560;84;21210;-77
2021/12/24 11:26:04;;;;;;;41.45;28.87;;;;;;;3.28;78.06;98954.92;1685188;83;21131;-77
2021/12/24 11:28:31;;;;;;;37.35;25.88;;;;;;;3.33;77.55;98957.66;1613971;87;21653;-77
2021/12/24 11:31:01;;;;;;;39.20;25.45;;;;;;;3.33;77.37;98955.05;1670500;85;22618;-80
2021/12/24 11:33:31;;;;;;;43.30;27.20;;;;;;;3.33;77.19;98958.95;1692770;83;21120;-76
2021/12/24 11:35:58;;;;;;;40.83;24.10;;;;;;;3.30;77.09;98951.53;1685151;85;21070;-74
2021/12/24 11:38:27;;;;;;;37.85;24.47;;;;;;;3.31;77.04;98950.68;1685185;85;21145;-76
2021/12/24 11:40:57;;;;;;;37.40;24.05;;;;;;;3.30;76.93;98943.73;1661505;83;21116;-74
2021/12/24 11:43:28;;;;;;;37.00;23.07;;;;;;;3.36;77.07;98938.20;1705942;83;21765;-74
2021/12/24 11:45:58;;;;;;;41.55;24.75;;;;;;;3.42;76.98;98929.27;1696120;83;21485;-74
2021/12/24 11:48:30;;;;;;;39.63;23.42;;;;;;;3.42;76.77;98931.88;1684432;85;21375;-74
2021/12/24 11:50:56;;;;;;;34.58;21.62;;;;;;;3.41;76.67;98934.00;1685193;84;21100;-74
2021/12/24 11:53:25;;;;;;;202.53;124.33;;;;;;;3.37;76.61;98929.58;1684888;84;21103;-74
2021/12/24 11:55:51;;;;;;;36.15;22.65;;;;;;;3.39;76.73;98926.16;1686884;83;21232;-81
2021/12/24 11:58:24;;;;;;;28.15;19.80;;;;;;;3.44;76.70;98921.08;1685517;83;21078;-75
2021/12/24 12:00:53;;;;;;;39.48;27.85;;;;;;;3.48;76.58;98923.78;1678490;85;21676;-75
2021/12/24 12:03:38;;;;;;;39.50;21.57;;;;;;;3.52;76.48;98922.13;1685101;85;21139;-78
2021/12/24 12:06:24;;;;;;;36.65;20.50;;;;;;;3.52;76.35;98916.93;1685372;85;21089;-74
2021/12/24 12:08:55;;;;;;;32.40;23.38;;;;;;;3.53;76.22;98915.20;1691983;83;21770;-74
2021/12/24 12:11:29;;;;;;;31.45;23.05;;;;;;;3.48;76.14;98897.77;1677474;84;21090;-73
2021/12/24 12:14:09;;;;;;;31.52;22.82;;;;;;;3.44;76.17;98896.37;1661034;84;21117;-73
2021/12/24 12:16:56;;;;;;;28.98;21.62;;;;;;;3.45;76.20;98898.11;1712950;83;21062;-74
2021/12/24 12:25:03;;;;;;;44.30;29.70;;;;;;;3.25;76.08;98902.43;1689676;83;21093;-74
2021/12/24 12:27:36;;;;;;;42.33;26.10;;;;;;;3.24;76.22;98907.16;1687913;83;21157;-76
2021/12/24 12:30:29;;;;;;;43.87;28.80;;;;;;;3.25;76.29;98902.43;1653157;84;21372;-75
2021/12/24 12:33:34;;;;;;;35.87;24.73;;;;;;;3.24;76.27;98900.66;1650803;85;21101;-80
2021/12/24 12:36:02;;;;;;;48.20;33.15;;;;;;;3.22;76.31;98897.58;1650840;85;21919;-80
2021/12/24 12:38:40;;;;;;;60.58;42.65;;;;;;;3.15;76.16;98888.73;1651349;85;22258;-80
2021/12/24 12:41:24;;;;;;;32.67;22.90;;;;;;;3.08;76.18;98878.62;1653825;85;21091;-79
2021/12/24 12:43:54;;;;;;;30.43;20.72;;;;;;;3.03;76.22;98885.41;1645317;86;21560;-80
2021/12/24 12:46:31;;;;;;;34.23;22.70;;;;;;;2.98;76.29;98887.44;1651679;85;21146;-87
2021/12/24 12:48:56;;;;;;;83.15;52.45;;;;;;;2.94;76.33;98884.31;1652095;85;22603;-88
2021/12/24 12:51:51;;;;;;;32.85;24.12;;;;;;;2.87;76.27;98880.66;1652247;86;21121;-85
2021/12/24 12:54:40;;;;;;;33.20;22.45;;;;;;;2.77;76.30;98890.38;1652123;86;21604;-84
2021/12/24 12:57:32;;;;;;;35.50;29.10;;;;;;;2.66;76.41;98880.56;1652516;86;21039;-83
2021/12/24 13:00:17;;;;;;;28.75;20.48;;;;;;;2.51;76.30;98874.54;1652366;85;21095;-84
2021/12/24 13:06:06;;;;;;;30.27;22.00;;;;;;;2.18;76.43;98876.20;1652096;85;21086;-84
2021/12/24 13:08:36;;;;;;;31.30;21.80;;;;;;;2.10;76.81;98878.20;1653049;85;21195;-87
2021/12/24 13:11:07;;;;;;;32.42;22.50;;;;;;;2.08;76.97;98871.18;1652059;85;21090;-84
2021/12/24 13:13:56;;;;;;;28.32;20.62;;;;;;;2.01;76.99;98865.34;1652307;86;21098;-86
2021/12/24 13:16:34;;;;;;;27.80;18.62;;;;;;;1.83;77.03;98861.81;1652171;86;21768;-82